createdAt,value
2022-07-25T00:02:13.370Z,18.67
2022-07-25T00:04:43.636Z,18.62
2022-07-25T00:07:12.199Z,18.58
2022-07-25T00:09:40.416Z,18.51
2022-07-25T00:12:08.909Z,18.42
2022-07-25T00:14:39.613Z,18.48
2022-07-25T00:17:07.899Z,18.41
2022-07-25T00:19:36.090Z,18.39
2022-07-25T00:22:05.709Z,18.44
2022-07-25T00:24:34.403Z,18.54
2022-07-25T00:27:02.981Z,18.57
2022-07-25T00:29:31.312Z,18.44
2022-07-25T00:31:59.437Z,18.45
2022-07-25T00:34:27.660Z,18.46
2022-07-25T00:36:55.880Z,18.40
2022-07-25T00:39:25.456Z,18.61
2022-07-25T00:41:53.588Z,18.47
2022-07-25T00:44:25.990Z,18.44
2022-07-25T00:46:54.549Z,18.41
2022-07-25T00:49:22.870Z,18.43
2022-07-25T00:51:51.350Z,18.38
2022-07-25T00:54:19.938Z,18.25
2022-07-25T00:56:49.798Z,18.26
2022-07-25T00:59:17.967Z,18.17
2022-07-25T01:01:48.435Z,18.23
2022-07-25T01:04:17.121Z,18.19
2022-07-25T01:06:45.819Z,18.13
2022-07-25T01:09:14.079Z,18.25
2022-07-25T01:11:42.636Z,18.23
2022-07-25T01:14:12.097Z,18.27
2022-07-25T01:16:41.357Z,18.27
2022-07-25T01:19:10.058Z,18.24
2022-07-25T01:21:41.381Z,18.11
2022-07-25T01:24:10.440Z,18.17
2022-07-25T01:26:38.584Z,18.03
2022-07-25T01:29:06.830Z,17.76
2022-07-25T01:31:34.961Z,17.89
2022-07-25T01:34:03.435Z,17.84
2022-07-25T01:36:31.874Z,17.85
2022-07-25T01:39:01.426Z,17.87
2022-07-25T01:41:29.487Z,17.89
2022-07-25T01:43:57.495Z,17.96
2022-07-25T01:46:25.666Z,17.92
2022-07-25T01:48:53.799Z,17.77
2022-07-25T01:51:21.877Z,17.80
2022-07-25T01:53:49.949Z,17.83
2022-07-25T01:56:19.437Z,17.74
2022-07-25T01:58:50.579Z,17.66
2022-07-25T02:01:19.478Z,17.63
2022-07-25T02:03:50.056Z,17.58
2022-07-25T02:06:19.407Z,17.48
2022-07-25T02:08:47.414Z,17.43
2022-07-25T02:11:16.049Z,17.38
2022-07-25T02:13:45.816Z,17.34
2022-07-25T02:16:14.109Z,17.31
2022-07-25T02:18:42.105Z,17.33
2022-07-25T02:21:14.478Z,17.28
2022-07-25T02:23:43.007Z,17.27
2022-07-25T02:26:11.029Z,17.16
2022-07-25T02:28:39.155Z,17.18
2022-07-25T02:31:09.036Z,17.25
2022-07-25T02:33:37.551Z,17.12
2022-07-25T02:36:05.869Z,17.10
2022-07-25T02:38:33.896Z,17.15
2022-07-25T02:41:01.915Z,17.10
2022-07-25T02:43:29.950Z,16.98
2022-07-25T02:45:58.248Z,16.98
2022-07-25T02:48:27.869Z,16.91
2022-07-25T02:50:55.895Z,16.94
2022-07-25T02:53:40.333Z,16.99
2022-07-25T02:56:11.905Z,16.96
2022-07-25T02:58:42.458Z,16.93
2022-07-25T03:01:10.878Z,16.95
2022-07-25T03:03:40.773Z,17.00
2022-07-25T03:06:08.950Z,16.86
2022-07-25T03:08:36.992Z,16.93
2022-07-25T03:11:05.209Z,16.92
2022-07-25T03:13:34.134Z,16.88
2022-07-25T03:16:02.229Z,16.84
2022-07-25T03:18:30.375Z,16.75
2022-07-25T03:20:59.878Z,16.73
2022-07-25T03:23:28.577Z,16.71
2022-07-25T03:25:56.816Z,16.71
2022-07-25T03:28:25.568Z,16.60
2022-07-25T03:30:54.001Z,16.56
2022-07-25T03:33:22.044Z,16.52
2022-07-25T03:35:50.067Z,16.40
2022-07-25T03:38:19.610Z,16.40
2022-07-25T03:40:47.617Z,16.34
2022-07-25T03:43:15.646Z,16.43
2022-07-25T03:45:43.856Z,16.43
2022-07-25T03:48:12.268Z,16.43
2022-07-25T03:50:40.316Z,16.45
2022-07-25T03:53:09.218Z,16.39
2022-07-25T03:55:40.797Z,16.51
2022-07-25T03:58:08.866Z,16.51
2022-07-25T04:00:37.103Z,16.52
2022-07-25T04:03:05.205Z,16.49
2022-07-25T04:05:33.205Z,16.58
2022-07-25T04:08:01.217Z,16.60
2022-07-25T04:10:29.256Z,16.63
2022-07-25T04:12:58.656Z,16.56
2022-07-25T04:15:26.875Z,16.62
2022-07-25T04:17:55.316Z,16.64
2022-07-25T04:20:23.492Z,16.66
2022-07-25T04:22:53.140Z,16.70
2022-07-25T04:25:21.159Z,16.72
2022-07-25T04:27:49.146Z,16.79
2022-07-25T04:30:24.164Z,16.91
2022-07-25T04:32:52.917Z,16.95
2022-07-25T04:35:21.190Z,17.07
2022-07-25T04:37:49.466Z,17.19
2022-07-25T04:40:17.589Z,17.20
2022-07-25T04:42:45.744Z,17.30
2022-07-25T04:45:17.880Z,17.50
2022-07-25T04:47:47.597Z,17.59
2022-07-25T04:50:16.197Z,17.64
2022-07-25T04:52:44.856Z,17.75
2022-07-25T04:55:13.298Z,17.90
2022-07-25T04:57:41.506Z,17.97
2022-07-25T05:00:11.490Z,18.07
2022-07-25T05:02:39.747Z,18.23
2022-07-25T05:05:18.420Z,18.31
2022-07-25T05:07:50.236Z,18.44
2022-07-25T05:10:18.456Z,18.54
2022-07-25T05:12:46.495Z,18.65
2022-07-25T05:15:14.978Z,18.80
2022-07-25T05:17:43.067Z,18.99
2022-07-25T05:20:13.814Z,19.13
2022-07-25T05:22:42.277Z,19.23
2022-07-25T05:25:11.595Z,19.19
2022-07-25T05:27:39.963Z,19.31
2022-07-25T05:30:10.033Z,19.41
2022-07-25T05:32:38.188Z,19.56
2022-07-25T05:35:08.145Z,19.62
2022-07-25T05:37:38.295Z,19.80
2022-07-25T05:40:07.890Z,19.94
2022-07-25T05:42:36.092Z,20.12
2022-07-25T05:45:04.825Z,20.27
2022-07-25T05:47:33.224Z,20.34
2022-07-25T05:50:02.416Z,20.45
2022-07-25T05:52:30.504Z,20.63
2022-07-25T05:55:00.080Z,20.77
2022-07-25T05:57:28.213Z,20.92
2022-07-25T05:59:56.356Z,21.09
2022-07-25T06:02:24.776Z,21.28
2022-07-25T06:04:53.215Z,21.39
2022-07-25T06:07:21.284Z,21.64
2022-07-25T06:09:49.385Z,21.77
2022-07-25T06:12:18.972Z,21.92
2022-07-25T06:14:47.132Z,22.12
2022-07-25T06:17:15.715Z,22.25
2022-07-25T06:19:43.814Z,22.45
2022-07-25T06:22:12.104Z,22.54
2022-07-25T06:24:42.981Z,22.62
2022-07-25T06:27:11.065Z,22.56
2022-07-25T06:29:40.625Z,22.76
2022-07-25T06:32:08.812Z,22.88
2022-07-25T06:34:37.029Z,23.01
2022-07-25T06:37:05.125Z,23.08
2022-07-25T06:39:33.235Z,23.20
2022-07-25T06:42:04.161Z,23.11
2022-07-25T06:44:33.755Z,23.15
2022-07-25T06:47:03.642Z,23.39
2022-07-25T06:49:31.995Z,23.52
2022-07-25T06:52:00.083Z,23.66
2022-07-25T06:54:28.255Z,23.91
2022-07-25T06:56:56.305Z,23.89
2022-07-25T06:59:24.477Z,24.14
2022-07-25T07:01:52.545Z,24.20
2022-07-25T07:04:22.125Z,24.35
2022-07-25T07:06:50.207Z,24.32
2022-07-25T07:09:18.356Z,24.58
2022-07-25T07:11:46.521Z,24.70
2022-07-25T07:14:14.665Z,24.69
2022-07-25T07:16:42.834Z,24.82
2022-07-25T07:19:12.265Z,24.96
2022-07-25T07:21:41.835Z,24.88
2022-07-25T07:24:24.204Z,24.93
2022-07-25T07:26:53.631Z,25.10
2022-07-25T07:29:22.142Z,25.16
2022-07-25T07:31:50.477Z,25.21
2022-07-25T07:34:18.716Z,25.33
2022-07-25T07:36:48.348Z,25.41
2022-07-25T07:39:16.901Z,25.51
2022-07-25T07:41:45.075Z,25.58
2022-07-25T07:44:13.318Z,25.74
2022-07-25T07:46:41.542Z,25.85
2022-07-25T07:49:10.537Z,26.00
2022-07-25T07:51:39.055Z,25.97
2022-07-25T07:54:26.203Z,26.05
2022-07-25T07:56:54.295Z,26.17
2022-07-25T07:59:22.379Z,26.25
2022-07-25T08:01:50.502Z,26.38
2022-07-25T08:04:18.625Z,26.52
2022-07-25T08:06:46.716Z,26.57
2022-07-25T08:09:16.257Z,26.48
2022-07-25T08:11:44.436Z,26.57
2022-07-25T08:14:12.946Z,26.66
2022-07-25T08:16:41.326Z,26.72
2022-07-25T08:19:09.513Z,26.64
2022-07-25T08:21:37.837Z,26.57
2022-07-25T08:24:07.161Z,26.61
2022-07-25T08:26:37.359Z,26.76
2022-07-25T08:29:18.708Z,26.98
2022-07-25T08:31:47.821Z,26.84
2022-07-25T08:34:16.079Z,26.86
2022-07-25T08:36:44.520Z,27.03
2022-07-25T08:39:13.658Z,27.01
2022-07-25T08:41:43.319Z,27.00
2022-07-25T08:44:11.538Z,27.19
2022-07-25T08:46:42.478Z,27.30
2022-07-25T08:49:10.801Z,27.29
2022-07-25T08:51:40.104Z,27.34
2022-07-25T08:54:08.681Z,27.42
2022-07-25T08:56:37.458Z,27.50
2022-07-25T08:59:06.986Z,27.64
2022-07-25T09:01:35.308Z,27.60
2022-07-25T09:04:04.788Z,27.59
2022-07-25T09:06:33.178Z,27.78
2022-07-25T09:09:04.805Z,27.88
2022-07-25T09:11:34.351Z,27.86
2022-07-25T09:14:05.295Z,27.98
2022-07-25T09:16:36.593Z,28.07
2022-07-25T09:19:13.481Z,28.26
2022-07-25T09:21:43.072Z,28.34
2022-07-25T09:24:16.180Z,28.31
2022-07-25T09:26:48.783Z,28.25
2022-07-25T09:29:23.063Z,28.46
2022-07-25T09:31:53.266Z,28.43
2022-07-25T09:34:34.858Z,28.49
2022-07-25T09:37:03.637Z,28.60
2022-07-25T09:39:45.868Z,28.74
2022-07-25T09:42:20.407Z,28.55
2022-07-25T09:45:04.019Z,28.52
2022-07-25T09:47:34.659Z,28.66
2022-07-25T09:50:02.988Z,28.65
2022-07-25T09:52:31.724Z,28.67
2022-07-25T09:55:00.498Z,28.77
2022-07-25T09:57:29.063Z,28.94
2022-07-25T09:59:57.424Z,29.11
2022-07-25T10:02:39.143Z,29.16
2022-07-25T10:05:15.155Z,29.07
2022-07-25T10:07:46.943Z,29.04
2022-07-25T10:10:27.965Z,29.26
2022-07-25T10:13:10.470Z,29.29
2022-07-25T10:15:50.357Z,29.31
2022-07-25T10:18:21.836Z,29.36
2022-07-25T10:20:51.766Z,29.32
2022-07-25T10:23:21.719Z,29.31
2022-07-25T10:26:01.215Z,29.32
2022-07-25T10:28:41.788Z,29.43
2022-07-25T10:31:17.925Z,29.46
2022-07-25T10:33:49.847Z,29.52
2022-07-25T10:36:18.204Z,29.54
2022-07-25T10:38:47.246Z,29.57
2022-07-25T10:41:17.443Z,29.67
2022-07-25T10:43:48.860Z,29.74
2022-07-25T10:46:23.660Z,29.87
2022-07-25T10:49:01.714Z,29.95
2022-07-25T10:51:30.777Z,29.88
2022-07-25T10:53:58.974Z,29.99
2022-07-25T10:56:28.624Z,30.03
2022-07-25T10:58:57.753Z,30.18
2022-07-25T11:01:27.835Z,30.30
2022-07-25T11:03:57.005Z,30.27
2022-07-25T11:06:34.295Z,30.32
2022-07-25T11:09:03.635Z,30.39
2022-07-25T11:11:39.021Z,30.52
2022-07-25T11:14:15.403Z,30.51
2022-07-25T11:16:43.852Z,30.55
2022-07-25T11:19:22.763Z,30.65
2022-07-25T11:21:54.915Z,30.74
2022-07-25T11:24:23.397Z,30.69
2022-07-25T11:26:52.614Z,30.66
2022-07-25T11:29:22.325Z,30.72
2022-07-25T11:31:54.957Z,30.87
2022-07-25T11:34:24.915Z,30.88
2022-07-25T11:36:57.490Z,30.93
2022-07-25T11:39:27.636Z,31.01
2022-07-25T11:42:03.743Z,31.05
2022-07-25T11:44:36.365Z,31.12
2022-07-25T11:47:05.116Z,31.35
2022-07-25T11:49:33.555Z,31.51
2022-07-25T11:52:03.055Z,31.41
2022-07-25T11:54:31.196Z,31.71
2022-07-25T11:56:59.246Z,31.67
2022-07-25T11:59:27.915Z,31.79
2022-07-25T12:01:56.193Z,31.89
2022-07-25T12:04:24.713Z,32.10
2022-07-25T12:06:52.891Z,32.16
2022-07-25T12:09:23.455Z,32.30
2022-07-25T12:11:51.907Z,32.55
2022-07-25T12:14:20.096Z,32.65
2022-07-25T12:16:48.378Z,32.73
2022-07-25T12:19:21.176Z,33.01
2022-07-25T12:21:50.821Z,33.42
2022-07-25T12:24:19.073Z,33.71
2022-07-25T12:26:49.017Z,33.74
2022-07-25T12:29:17.214Z,33.66
2022-07-25T12:31:45.375Z,33.66
2022-07-25T12:34:14.213Z,33.79
2022-07-25T12:36:45.310Z,34.04
2022-07-25T12:39:13.604Z,34.39
2022-07-25T12:41:43.053Z,35.33
2022-07-25T12:44:12.957Z,38.72
2022-07-25T12:46:48.816Z,41.52
2022-07-25T12:49:18.029Z,44.27
2022-07-25T12:51:46.337Z,40.22
2022-07-25T12:54:21.655Z,41.40
2022-07-25T12:56:50.573Z,45.32
2022-07-25T12:59:23.508Z,47.48
2022-07-25T13:01:57.181Z,49.34
2022-07-25T13:04:41.924Z,48.54
2022-07-25T13:07:17.126Z,49.23
2022-07-25T13:09:47.487Z,49.06
2022-07-25T13:12:18.962Z,49.44
2022-07-25T13:14:52.787Z,50.62
2022-07-25T13:17:26.535Z,51.75
2022-07-25T13:19:55.585Z,53.90
2022-07-25T13:22:23.724Z,48.94
2022-07-25T13:24:52.235Z,49.04
2022-07-25T13:27:23.877Z,48.35
2022-07-25T13:33:00.566Z,50.96
2022-07-25T13:35:42.468Z,50.78
2022-07-25T13:38:20.107Z,51.41
2022-07-25T13:41:02.257Z,53.27
2022-07-25T13:43:40.918Z,51.86
2022-07-25T13:46:19.326Z,49.99
2022-07-25T13:48:58.537Z,50.04
2022-07-25T13:51:38.758Z,51.30
2022-07-25T13:57:13.181Z,54.49
2022-07-25T14:05:51.212Z,49.73
2022-07-25T14:08:32.409Z,49.13
2022-07-25T14:11:12.076Z,50.58
2022-07-25T14:13:49.375Z,50.98
2022-07-25T14:16:21.609Z,51.16
2022-07-25T14:19:00.099Z,50.99
2022-07-25T14:21:28.314Z,52.47
2022-07-25T14:24:07.001Z,53.69
2022-07-25T14:26:42.833Z,53.41
2022-07-25T14:29:13.534Z,54.46
2022-07-25T14:31:41.755Z,55.44
2022-07-25T14:34:20.000Z,55.04
2022-07-25T14:36:55.334Z,56.14
2022-07-25T14:39:30.275Z,54.71
2022-07-25T14:42:09.994Z,54.25
2022-07-25T14:44:44.832Z,53.25
2022-07-25T14:47:23.951Z,53.21
2022-07-25T14:50:05.026Z,51.33
2022-07-25T14:52:39.221Z,48.52
2022-07-25T14:55:18.996Z,47.00
2022-07-25T14:57:58.294Z,49.09
2022-07-25T15:00:33.079Z,50.35
2022-07-25T15:03:10.182Z,50.70
2022-07-25T15:05:50.347Z,51.37
2022-07-25T15:08:34.370Z,54.17
2022-07-25T15:11:19.227Z,53.73
2022-07-25T15:13:58.017Z,48.55
2022-07-25T15:16:34.533Z,45.51
2022-07-25T15:19:17.032Z,48.51
2022-07-25T15:21:55.914Z,51.37
2022-07-25T15:24:36.327Z,53.01
2022-07-25T15:27:21.528Z,51.60
2022-07-25T15:29:49.771Z,51.42
2022-07-25T15:32:27.191Z,49.55
2022-07-25T15:34:57.197Z,47.05
2022-07-25T15:37:28.931Z,47.47
2022-07-25T15:39:58.446Z,47.05
2022-07-25T15:42:29.543Z,45.14
2022-07-25T15:45:31.636Z,42.49
2022-07-25T15:48:03.366Z,40.94
2022-07-25T15:50:39.230Z,40.21
2022-07-25T15:53:11.889Z,39.60
2022-07-25T15:55:53.374Z,38.37
2022-07-25T15:58:24.997Z,37.51
2022-07-25T16:00:54.331Z,37.17
2022-07-25T16:03:29.053Z,36.53
2022-07-25T16:06:07.512Z,35.98
2022-07-25T16:08:49.038Z,35.64
2022-07-25T16:11:26.454Z,35.00
2022-07-25T16:14:05.619Z,35.00
2022-07-25T16:16:40.886Z,34.86
2022-07-25T16:19:14.574Z,34.81
2022-07-25T16:21:43.637Z,34.89
2022-07-25T16:24:14.266Z,34.60
2022-07-25T16:26:48.916Z,34.20
2022-07-25T16:29:29.034Z,34.39
2022-07-25T16:31:58.989Z,34.31
2022-07-25T16:34:29.263Z,34.18
2022-07-25T16:36:58.047Z,34.06
2022-07-25T16:39:28.893Z,33.94
2022-07-25T16:42:08.866Z,33.78
2022-07-25T16:47:36.738Z,33.61
2022-07-25T16:50:10.306Z,33.45
2022-07-25T16:52:43.510Z,33.21
2022-07-25T16:55:14.507Z,33.15
2022-07-25T16:57:42.866Z,33.03
2022-07-25T17:00:15.435Z,32.88
2022-07-25T17:02:47.585Z,32.71
2022-07-25T17:05:18.128Z,32.49
2022-07-25T17:07:59.005Z,32.47
2022-07-25T17:10:32.736Z,32.31
2022-07-25T17:13:03.105Z,32.19
2022-07-25T17:15:40.483Z,32.08
2022-07-25T17:18:11.162Z,32.06
2022-07-25T17:20:42.683Z,31.95
2022-07-25T17:23:21.379Z,31.86
2022-07-25T17:25:56.526Z,31.89
2022-07-25T17:28:26.909Z,31.84
2022-07-25T17:31:02.548Z,31.76
2022-07-25T17:33:31.162Z,31.57
2022-07-25T17:36:00.599Z,30.94
2022-07-25T17:38:34.578Z,30.45
2022-07-25T17:41:05.649Z,30.35
2022-07-25T17:43:37.257Z,29.93
2022-07-25T17:46:11.377Z,29.51
2022-07-25T17:48:41.433Z,27.84
2022-07-25T17:51:13.112Z,26.83
2022-07-25T17:53:41.321Z,26.26
2022-07-25T17:56:11.137Z,25.63
2022-07-25T17:58:39.556Z,24.88
2022-07-25T18:01:10.599Z,24.51
2022-07-25T18:03:41.399Z,24.10
2022-07-25T18:06:09.770Z,24.16
2022-07-25T18:08:44.006Z,23.66
2022-07-25T18:11:15.475Z,23.64
2022-07-25T18:13:46.206Z,23.78
2022-07-25T18:16:14.516Z,23.78
2022-07-25T18:18:43.073Z,23.74
2022-07-25T18:21:13.770Z,23.80
2022-07-25T18:23:41.974Z,24.07
2022-07-25T18:26:13.010Z,24.27
2022-07-25T18:28:43.782Z,24.59
2022-07-25T18:31:12.131Z,24.82
2022-07-25T18:33:44.691Z,25.03
2022-07-25T18:36:15.330Z,24.99
2022-07-25T18:38:43.653Z,24.94
2022-07-25T18:41:28.490Z,25.04
2022-07-25T18:43:59.279Z,24.92
2022-07-25T18:46:37.036Z,24.76
2022-07-25T18:49:08.689Z,24.90
2022-07-25T18:51:38.759Z,24.80
2022-07-25T18:54:07.365Z,24.97
2022-07-25T18:56:35.689Z,24.98
2022-07-25T18:59:05.560Z,24.96
2022-07-25T19:01:37.679Z,24.96
2022-07-25T19:04:06.862Z,24.95
2022-07-25T19:06:38.151Z,24.97
2022-07-25T19:09:06.415Z,24.97
2022-07-25T19:11:42.396Z,24.87
2022-07-25T19:14:15.312Z,24.93
2022-07-25T19:16:43.689Z,25.01
2022-07-25T19:19:11.894Z,24.92
2022-07-25T19:21:39.988Z,24.91
2022-07-25T19:24:08.699Z,24.85
2022-07-25T19:26:37.046Z,24.79
2022-07-25T19:29:11.088Z,24.73
2022-07-25T19:31:43.712Z,24.66
2022-07-25T19:34:19.655Z,24.22
2022-07-25T19:36:53.679Z,23.77
2022-07-25T19:39:24.595Z,23.83
2022-07-25T19:41:58.218Z,24.01
2022-07-25T19:44:26.583Z,23.92
2022-07-25T19:47:07.303Z,23.75
2022-07-25T19:49:53.047Z,24.01
2022-07-25T19:52:30.523Z,23.70
2022-07-25T19:55:17.444Z,23.66
2022-07-25T19:57:52.792Z,23.48
2022-07-25T20:00:26.074Z,23.34
2022-07-25T20:03:08.624Z,23.67
2022-07-25T20:05:50.481Z,23.71
2022-07-25T20:08:27.053Z,23.73
2022-07-25T20:10:55.655Z,23.72
2022-07-25T20:13:33.204Z,23.63
2022-07-25T20:16:07.491Z,23.46
2022-07-25T20:18:44.427Z,23.36
2022-07-25T20:21:18.713Z,23.47
2022-07-25T20:23:51.221Z,23.54
2022-07-25T20:26:24.663Z,23.58
2022-07-25T20:28:58.351Z,23.67
2022-07-25T20:31:37.270Z,23.43
2022-07-25T20:34:16.973Z,23.67
2022-07-25T20:36:52.399Z,23.80
2022-07-25T20:39:28.870Z,23.79
2022-07-25T20:42:02.433Z,23.77
2022-07-25T20:44:47.561Z,23.91
2022-07-25T20:47:27.153Z,23.81
2022-07-25T20:50:04.918Z,23.78
2022-07-25T20:52:41.116Z,23.81
2022-07-25T20:55:14.612Z,23.82
2022-07-25T20:57:52.498Z,23.82
2022-07-25T21:00:27.211Z,23.66
2022-07-25T21:03:02.251Z,22.80
2022-07-25T21:05:45.898Z,22.44
2022-07-25T21:08:22.869Z,22.16
2022-07-25T21:11:01.467Z,21.96
2022-07-25T21:13:38.616Z,21.86
2022-07-25T21:16:17.893Z,21.77
2022-07-25T21:18:52.163Z,21.71
2022-07-25T21:21:28.499Z,21.82
2022-07-25T21:24:03.944Z,21.82
2022-07-25T21:26:40.776Z,21.81
2022-07-25T21:29:16.729Z,21.86
2022-07-25T21:31:54.287Z,21.94
2022-07-25T21:34:40.480Z,21.92
2022-07-25T21:37:24.748Z,21.98
2022-07-25T21:40:02.594Z,21.90
2022-07-25T21:42:41.297Z,22.00
2022-07-25T21:45:25.290Z,21.97
2022-07-25T21:48:03.522Z,21.92
2022-07-25T21:50:43.711Z,21.86
2022-07-25T21:53:18.031Z,21.92
2022-07-25T21:55:49.145Z,21.93
2022-07-25T21:58:30.508Z,21.96
2022-07-25T22:01:03.587Z,21.96
2022-07-25T22:03:44.863Z,21.79
2022-07-25T22:06:20.376Z,21.88
2022-07-25T22:08:52.973Z,21.89
2022-07-25T22:11:42.987Z,21.81
2022-07-25T22:14:26.602Z,21.86
2022-07-25T22:17:07.637Z,21.73
2022-07-25T22:19:50.448Z,21.68
2022-07-25T22:22:18.722Z,21.65
2022-07-25T22:24:48.376Z,21.67
2022-07-25T22:27:25.488Z,21.63
2022-07-25T22:29:55.225Z,21.49
2022-07-25T22:32:29.461Z,21.51
2022-07-25T22:34:59.504Z,21.60
2022-07-25T22:37:32.820Z,21.54
2022-07-25T22:40:06.372Z,21.17
2022-07-25T22:42:57.720Z,21.31
2022-07-25T22:45:29.079Z,21.26
2022-07-25T22:48:00.805Z,21.09
2022-07-25T22:50:28.997Z,21.23
2022-07-25T22:53:08.644Z,21.23
2022-07-25T22:55:48.543Z,21.29
2022-07-25T22:58:22.375Z,21.33
2022-07-25T23:00:54.950Z,21.22
2022-07-25T23:03:25.666Z,21.35
2022-07-25T23:06:02.641Z,21.34
2022-07-25T23:08:33.111Z,21.24
2022-07-25T23:11:30.393Z,21.32
2022-07-25T23:13:58.606Z,21.21
2022-07-25T23:16:29.972Z,21.17
2022-07-25T23:18:58.353Z,21.22
2022-07-25T23:21:29.611Z,21.23
2022-07-25T23:24:00.136Z,21.24
2022-07-25T23:26:32.477Z,21.19
2022-07-25T23:29:00.685Z,21.16
2022-07-25T23:31:29.167Z,21.21
2022-07-25T23:34:06.014Z,21.30
2022-07-25T23:36:34.105Z,21.32
2022-07-25T23:39:08.180Z,21.25
2022-07-25T23:41:47.225Z,21.21
2022-07-25T23:44:15.494Z,21.20
2022-07-25T23:46:46.381Z,21.15
2022-07-25T23:49:14.916Z,20.90
2022-07-25T23:51:52.838Z,20.99
2022-07-25T23:54:26.505Z,21.19
2022-07-25T23:57:01.080Z,21.30
2022-07-25T23:59:46.330Z,20.96
